Terminal Aerodrome Forecast
Issued by NWS

Home | Current Version | Previous Version | Text Only | Print | Product List | Glossary On
Versions: 1 2 3 4 5 6 7 8 9 10 11 12 13 14 15 16 17
000
FTUS46 KSEW 191700
TAFBLI
TAF
KBLI 191732Z 1918/2018 18005KT 1SM -RA BR BKN003 OVC009
     FM191900 16008KT 5SM -RA BR SCT010 BKN020 OVC050
     FM192100 17010KT P6SM BKN040 BKN070
     FM192300 20008KT P6SM SCT080
     FM200300 00000KT P6SM SKC
     FM201100 02003KT P6SM VCFG SCT002
     FM201400 02005KT P6SM SKC=

USA.gov is the U.S. government's official web portal to all federal, state and local government web resources and services.